Capital Elite — WDD4777 — position and weather

sailwx.info

Track history (hours):
 
Tides and Currents Weather Stations Pressure Air Temp Water Temp Dewpoint Dewpoint Depression Visibility Wind Speed Wind Dir Waves Ship Positions

Capital Elite

Owner: Spirit Cruises, LLC, Chicago, IL. More information available from US FCC via Universal Licensing System and Coast Guard Vessel Documentation Center.

Last reported at 2018-Jul-18 18:06 UTC. Time now 2018-Jul-19 13:05 UTC.
Position N 38°52' W 077°01'.

Length 21 m; draft 0.9 m.

Type: Passenger vessel. MMSI: 367148890.

Date/timePositionNaut miles runAvg speedWind from/ knotsBaromVisibWave heightAir tempDewpointWater temp
2018-Jul-18 18:06N 38°52' W 077°01'0 0.4
2018-Jul-18 17:57N 38°52' W 077°01'1 1.3
2018-Jul-18 17:27N 38°52' W 077°02'1 3.1
2018-Jul-18 16:58N 38°52' W 077°00'1 1.7
2018-Jul-18 16:30N 38°52' W 077°01'1 1.7
2018-Jul-18 15:58N 38°52' W 077°01'0 0.0
2018-Jul-18 02:06N 38°52' W 077°01'0 0.0
2018-Jul-18 01:59N 38°52' W 077°01'1 1.7
2018-Jul-18 01:28N 38°52' W 077°01'0 0.3
2018-Jul-18 00:59N 38°52' W 077°01'2 5.0
2018-Jul-18 00:29N 38°49' W 077°02'1 2.4
2018-Jul-18 00:00N 38°48' W 077°02'2 4.9
2018-Jul-17 23:29N 38°51' W 077°01'2 3.5
2018-Jul-17 22:59N 38°52' W 077°01'0 0.0
2018-Jul-17 22:26N 38°52' W 077°01'0 0.0
2018-Jul-17 21:58N 38°52' W 077°01'0 0.0
2018-Jul-17 21:27N 38°52' W 077°01'0 0.0
2018-Jul-17 20:57N 38°52' W 077°01'0 0.0
2018-Jul-17 20:27N 38°52' W 077°01'0 0.0
2018-Jul-15 23:42N 38°52' W 077°01'1 3.1
2018-Jul-15 23:30N 38°52' W 077°01'1 1.2
2018-Jul-15 22:58N 38°52' W 077°02'1 2.4
2018-Jul-15 22:30N 38°52' W 077°01'0 0.1
2018-Jul-15 22:01N 38°52' W 077°00'1 1.4
2018-Jul-15 21:21N 38°52' W 077°01'0 0.3
2018-Jul-15 20:56N 38°52' W 077°01'0 0.0
2018-Jul-15 20:28N 38°52' W 077°01'0 0.0
2018-Jul-15 20:00N 38°52' W 077°01'0 0.3
2018-Jul-15 19:20N 38°52' W 077°01'2 6.0
2018-Jul-15 19:00N 38°50' W 077°02'2 5.0
2018-Jul-15 18:30N 38°48' W 077°02'3 5.9
2018-Jul-15 18:00N 38°45' W 077°02'3 5.2
2018-Jul-15 17:29N 38°42' W 077°03'4 7.4
2018-Jul-15 17:00N 38°46' W 077°02'3 6.5
2018-Jul-15 16:30N 38°49' W 077°02'3 6.7
2018-Jul-15 15:59N 38°52' W 077°01'0 0.3
2018-Jul-15 15:30N 38°52' W 077°01'0 0.0
2018-Jul-15 14:59N 38°52' W 077°01'0 0.0
2018-Jul-15 14:23N 38°52' W 077°01'0 0.0
2018-Jul-15 13:59N 38°52' W 077°01'0 0.0
2018-Jul-15 13:29N 38°52' W 077°01'0 0.0
2018-Jul-15 12:59N 38°52' W 077°01'0 0.0
2018-Jul-15 12:29N 38°52' W 077°01'0 0.0
2018-Jul-15 12:00N 38°52' W 077°01'0 0.0
2018-Jul-15 03:30N 38°52' W 077°01'0 0.0
2018-Jul-15 02:57N 38°52' W 077°01'1 2.7
2018-Jul-15 02:30N 38°51' W 077°01'3 5.8
2018-Jul-15 02:00N 38°48' W 077°02'1 2.7
2018-Jul-15 01:30N 38°50' W 077°02'2 4.8
2018-Jul-15 00:59N 38°52' W 077°02'1 1.6
2018-Jul-15 00:29N 38°52' W 077°01'1 1.5
2018-Jul-14 23:58N 38°52' W 077°01'0 0.0
2018-Jul-14 23:28N 38°52' W 077°01'0 0.0
2018-Jul-14 22:58N 38°52' W 077°01'0 0.0
2018-Jul-14 22:28N 38°52' W 077°01'0 0.0
2018-Jul-14 21:58N 38°52' W 077°01'0 0.0
2018-Jul-14 21:28N 38°52' W 077°01'0 0.0
2018-Jul-14 20:58N 38°52' W 077°01'0 0.0
2018-Jul-14 20:28N 38°52' W 077°01'0 0.0
2018-Jul-14 19:58N 38°52' W 077°01'0 0.0
2018-Jul-14 19:28N 38°52' W 077°01'0 0.0
2018-Jul-14 18:58N 38°52' W 077°01'0 0.0
2018-Jul-14 18:28N 38°52' W 077°01'0 0.0
2018-Jul-14 17:58N 38°52' W 077°01'0 0.0
2018-Jul-14 17:28N 38°52' W 077°01'0 0.0
2018-Jul-14 16:58N 38°52' W 077°01'0 0.0
2018-Jul-14 16:28N 38°52' W 077°01'0 0.0
2018-Jul-14 15:58N 38°52' W 077°01'0 0.0
2018-Jul-14 15:28N 38°52' W 077°01'0 0.0
2018-Jul-14 14:58N 38°52' W 077°01'0 0.0
2018-Jul-14 13:58N 38°52' W 077°01'0 0.0
2018-Jul-14 13:25N 38°52' W 077°01'0 0.0
2018-Jul-14 12:55N 38°52' W 077°01'0 0.0
2018-Jul-14 12:28N 38°52' W 077°01'0 0.0
2018-Jul-14 11:58N 38°52' W 077°01'0 0.0
2018-Jul-14 11:25N 38°52' W 077°01'0 0.0
2018-Jul-14 10:58N 38°52' W 077°01'0 0.0
2018-Jul-14 10:28N 38°52' W 077°01'0 0.0
2018-Jul-14 09:58N 38°52' W 077°01'0 0.0
2018-Jul-14 09:28N 38°52' W 077°01'0 0.0
2018-Jul-14 08:58N 38°52' W 077°01'0 0.0
2018-Jul-14 08:28N 38°52' W 077°01'0 0.0
2018-Jul-14 07:58N 38°52' W 077°01'0 0.0
2018-Jul-14 07:28N 38°52' W 077°01'0 0.0
2018-Jul-14 06:58N 38°52' W 077°01'0 0.0
2018-Jul-14 06:28N 38°52' W 077°01'0 0.0
2018-Jul-14 05:55N 38°52' W 077°01'0 0.0
2018-Jul-14 05:28N 38°52' W 077°01'0 0.0
2018-Jul-14 04:58N 38°52' W 077°01'0 0.0
2018-Jul-14 04:28N 38°52' W 077°01'0 0.0
2018-Jul-14 03:58N 38°52' W 077°01'0 0.0
2018-Jul-14 03:28N 38°52' W 077°01'0 0.0
2018-Jul-14 02:58N 38°52' W 077°01'0 0.0
2018-Jul-14 02:28N 38°52' W 077°01'0 0.0
2018-Jul-14 01:58N 38°52' W 077°01'0 0.0
2018-Jul-14 01:28N 38°52' W 077°01'0 0.0
2018-Jul-14 00:58N 38°52' W 077°01'0 0.0
2018-Jul-14 00:28N 38°52' W 077°01'1 2.9
2018-Jul-13 23:58N 38°51' W 077°01'4 7.9
2018-Jul-13 23:30N 38°47' W 077°02'1 1.6
2018-Jul-13 22:57N 38°47' W 077°01'1 2.0
2018-Jul-13 22:29N 38°48' W 077°02'3 6.0
2018-Jul-13 21:59N 38°51' W 077°01'2 3.7
2018-Jul-13 21:27N 38°52' W 077°01'0 0.0
2018-Jul-13 21:00N 38°52' W 077°01'0 0.0
2018-Jul-13 20:26N 38°52' W 077°01'0 0.0
2018-Jul-13 19:57N 38°52' W 077°01'0 0.0
2018-Jul-13 19:28N 38°52' W 077°01'0 0.0
2018-Jul-13 18:59N 38°52' W 077°01'0 0.0
2018-Jul-13 18:30N 38°52' W 077°01'0 0.0
2018-Jul-12 23:22N 38°52' W 077°01'0 1.1
2018-Jul-12 23:00N 38°52' W 077°01'1 1.0
2018-Jul-12 22:30N 38°52' W 077°01'1 2.2
2018-Jul-12 22:00N 38°53' W 077°02'0 0.4
2018-Jul-12 21:24N 38°52' W 077°01'0 0.0
2018-Jul-12 20:59N 38°52' W 077°01'0 0.0
2018-Jul-12 20:30N 38°52' W 077°01'0 0.0
2018-Jul-12 19:56N 38°52' W 077°01'0 0.0
2018-Jul-12 19:30N 38°52' W 077°01'0 0.0
2018-Jul-12 19:00N 38°52' W 077°01'0 0.0
2018-Jul-12 18:29N 38°52' W 077°01'0 0.0
2018-Jul-12 17:59N 38°52' W 077°01'0 0.0
2018-Jul-11 00:54N 38°52' W 077°01'1 2.1
2018-Jul-11 00:29N 38°52' W 077°01'0 0.9
2018-Jul-10 23:59N 38°52' W 077°01'1 1.7
2018-Jul-10 23:30N 38°52' W 077°02'1 1.2
2018-Jul-10 22:56N 38°52' W 077°01'  
Track history (hours):
 
Tides and Currents Weather Stations Pressure Air Temp Water Temp Dewpoint Dewpoint Depression Visibility Wind Speed Wind Dir Waves Ship Positions

Capital Elite

Owner: Spirit Cruises, LLC, Chicago, IL. More information available from US FCC via Universal Licensing System and Coast Guard Vessel Documentation Center.

Last reported at 2018-Jul-18 18:06 UTC. Time now 2018-Jul-19 13:05 UTC.
Position N 38°52' W 077°01'.

Length 21 m; draft 0.9 m.

Type: Passenger vessel. MMSI: 367148890.

Date/timePositionNaut miles runAvg speedWind from/ knotsBaromVisibWave heightAir tempDewpointWater temp
2018-Jul-18 18:06N 38°52' W 077°01'0 0.4
2018-Jul-18 17:57N 38°52' W 077°01'1 1.3
2018-Jul-18 17:27N 38°52' W 077°02'1 3.1
2018-Jul-18 16:58N 38°52' W 077°00'1 1.7
2018-Jul-18 16:30N 38°52' W 077°01'1 1.7
2018-Jul-18 15:58N 38°52' W 077°01'0 0.0
2018-Jul-18 02:06N 38°52' W 077°01'0 0.0
2018-Jul-18 01:59N 38°52' W 077°01'1 1.7
2018-Jul-18 01:28N 38°52' W 077°01'0 0.3
2018-Jul-18 00:59N 38°52' W 077°01'2 5.0
2018-Jul-18 00:29N 38°49' W 077°02'1 2.4
2018-Jul-18 00:00N 38°48' W 077°02'2 4.9
2018-Jul-17 23:29N 38°51' W 077°01'2 3.5
2018-Jul-17 22:59N 38°52' W 077°01'0 0.0
2018-Jul-17 22:26N 38°52' W 077°01'0 0.0
2018-Jul-17 21:58N 38°52' W 077°01'0 0.0
2018-Jul-17 21:27N 38°52' W 077°01'0 0.0
2018-Jul-17 20:57N 38°52' W 077°01'0 0.0
2018-Jul-17 20:27N 38°52' W 077°01'0 0.0
2018-Jul-15 23:42N 38°52' W 077°01'1 3.1
2018-Jul-15 23:30N 38°52' W 077°01'1 1.2
2018-Jul-15 22:58N 38°52' W 077°02'1 2.4
2018-Jul-15 22:30N 38°52' W 077°01'0 0.1
2018-Jul-15 22:01N 38°52' W 077°00'1 1.4
2018-Jul-15 21:21N 38°52' W 077°01'0 0.3
2018-Jul-15 20:56N 38°52' W 077°01'0 0.0
2018-Jul-15 20:28N 38°52' W 077°01'0 0.0
2018-Jul-15 20:00N 38°52' W 077°01'0 0.3
2018-Jul-15 19:20N 38°52' W 077°01'2 6.0
2018-Jul-15 19:00N 38°50' W 077°02'2 5.0
2018-Jul-15 18:30N 38°48' W 077°02'3 5.9
2018-Jul-15 18:00N 38°45' W 077°02'3 5.2
2018-Jul-15 17:29N 38°42' W 077°03'4 7.4
2018-Jul-15 17:00N 38°46' W 077°02'3 6.5
2018-Jul-15 16:30N 38°49' W 077°02'3 6.7
2018-Jul-15 15:59N 38°52' W 077°01'0 0.3
2018-Jul-15 15:30N 38°52' W 077°01'0 0.0
2018-Jul-15 14:59N 38°52' W 077°01'0 0.0
2018-Jul-15 14:23N 38°52' W 077°01'0 0.0
2018-Jul-15 13:59N 38°52' W 077°01'0 0.0
2018-Jul-15 13:29N 38°52' W 077°01'0 0.0
2018-Jul-15 12:59N 38°52' W 077°01'0 0.0
2018-Jul-15 12:29N 38°52' W 077°01'0 0.0
2018-Jul-15 12:00N 38°52' W 077°01'0 0.0
2018-Jul-15 03:30N 38°52' W 077°01'0 0.0
2018-Jul-15 02:57N 38°52' W 077°01'1 2.7
2018-Jul-15 02:30N 38°51' W 077°01'3 5.8
2018-Jul-15 02:00N 38°48' W 077°02'1 2.7
2018-Jul-15 01:30N 38°50' W 077°02'2 4.8
2018-Jul-15 00:59N 38°52' W 077°02'1 1.6
2018-Jul-15 00:29N 38°52' W 077°01'1 1.5
2018-Jul-14 23:58N 38°52' W 077°01'0 0.0
2018-Jul-14 23:28N 38°52' W 077°01'0 0.0
2018-Jul-14 22:58N 38°52' W 077°01'0 0.0
2018-Jul-14 22:28N 38°52' W 077°01'0 0.0
2018-Jul-14 21:58N 38°52' W 077°01'0 0.0
2018-Jul-14 21:28N 38°52' W 077°01'0 0.0
2018-Jul-14 20:58N 38°52' W 077°01'0 0.0
2018-Jul-14 20:28N 38°52' W 077°01'0 0.0
2018-Jul-14 19:58N 38°52' W 077°01'0 0.0
2018-Jul-14 19:28N 38°52' W 077°01'0 0.0
2018-Jul-14 18:58N 38°52' W 077°01'0 0.0
2018-Jul-14 18:28N 38°52' W 077°01'0 0.0
2018-Jul-14 17:58N 38°52' W 077°01'0 0.0
2018-Jul-14 17:28N 38°52' W 077°01'0 0.0
2018-Jul-14 16:58N 38°52' W 077°01'0 0.0
2018-Jul-14 16:28N 38°52' W 077°01'0 0.0
2018-Jul-14 15:58N 38°52' W 077°01'0 0.0
2018-Jul-14 15:28N 38°52' W 077°01'0 0.0
2018-Jul-14 14:58N 38°52' W 077°01'0 0.0
2018-Jul-14 13:58N 38°52' W 077°01'0 0.0
2018-Jul-14 13:25N 38°52' W 077°01'0 0.0
2018-Jul-14 12:55N 38°52' W 077°01'0 0.0
2018-Jul-14 12:28N 38°52' W 077°01'0 0.0
2018-Jul-14 11:58N 38°52' W 077°01'0 0.0
2018-Jul-14 11:25N 38°52' W 077°01'0 0.0
2018-Jul-14 10:58N 38°52' W 077°01'0 0.0
2018-Jul-14 10:28N 38°52' W 077°01'0 0.0
2018-Jul-14 09:58N 38°52' W 077°01'0 0.0
2018-Jul-14 09:28N 38°52' W 077°01'0 0.0
2018-Jul-14 08:58N 38°52' W 077°01'0 0.0
2018-Jul-14 08:28N 38°52' W 077°01'0 0.0
2018-Jul-14 07:58N 38°52' W 077°01'0 0.0
2018-Jul-14 07:28N 38°52' W 077°01'0 0.0
2018-Jul-14 06:58N 38°52' W 077°01'0 0.0
2018-Jul-14 06:28N 38°52' W 077°01'0 0.0
2018-Jul-14 05:55N 38°52' W 077°01'0 0.0
2018-Jul-14 05:28N 38°52' W 077°01'0 0.0
2018-Jul-14 04:58N 38°52' W 077°01'0 0.0
2018-Jul-14 04:28N 38°52' W 077°01'0 0.0
2018-Jul-14 03:58N 38°52' W 077°01'0 0.0
2018-Jul-14 03:28N 38°52' W 077°01'0 0.0
2018-Jul-14 02:58N 38°52' W 077°01'0 0.0
2018-Jul-14 02:28N 38°52' W 077°01'0 0.0
2018-Jul-14 01:58N 38°52' W 077°01'0 0.0
2018-Jul-14 01:28N 38°52' W 077°01'0 0.0
2018-Jul-14 00:58N 38°52' W 077°01'0 0.0
2018-Jul-14 00:28N 38°52' W 077°01'1 2.9
2018-Jul-13 23:58N 38°51' W 077°01'4 7.9
2018-Jul-13 23:30N 38°47' W 077°02'1 1.6
2018-Jul-13 22:57N 38°47' W 077°01'1 2.0
2018-Jul-13 22:29N 38°48' W 077°02'3 6.0
2018-Jul-13 21:59N 38°51' W 077°01'2 3.7
2018-Jul-13 21:27N 38°52' W 077°01'0 0.0
2018-Jul-13 21:00N 38°52' W 077°01'0 0.0
2018-Jul-13 20:26N 38°52' W 077°01'0 0.0
2018-Jul-13 19:57N 38°52' W 077°01'0 0.0
2018-Jul-13 19:28N 38°52' W 077°01'0 0.0
2018-Jul-13 18:59N 38°52' W 077°01'0 0.0
2018-Jul-13 18:30N 38°52' W 077°01'0 0.0
2018-Jul-12 23:22N 38°52' W 077°01'0 1.1
2018-Jul-12 23:00N 38°52' W 077°01'1 1.0
2018-Jul-12 22:30N 38°52' W 077°01'1 2.2
2018-Jul-12 22:00N 38°53' W 077°02'0 0.4
2018-Jul-12 21:24N 38°52' W 077°01'0 0.0
2018-Jul-12 20:59N 38°52' W 077°01'0 0.0
2018-Jul-12 20:30N 38°52' W 077°01'0 0.0
2018-Jul-12 19:56N 38°52' W 077°01'0 0.0
2018-Jul-12 19:30N 38°52' W 077°01'0 0.0
2018-Jul-12 19:00N 38°52' W 077°01'0 0.0
2018-Jul-12 18:29N 38°52' W 077°01'0 0.0
2018-Jul-12 17:59N 38°52' W 077°01'0 0.0
2018-Jul-11 00:54N 38°52' W 077°01'1 2.1
2018-Jul-11 00:29N 38°52' W 077°01'0 0.9
2018-Jul-10 23:59N 38°52' W 077°01'1 1.7
2018-Jul-10 23:30N 38°52' W 077°02'1 1.2
2018-Jul-10 22:56N 38°52' W 077°01'  

Dump ship's entire track history